createdAt,value
2018-03-04T06:55:18.430Z,0.32
2018-03-04T06:56:18.171Z,0.31
2018-03-04T06:58:10.578Z,0.32
2018-03-04T06:59:10.562Z,0.31
2018-03-04T07:00:10.545Z,0.31
2018-03-04T07:51:53.407Z,0.93
2018-03-04T09:26:13.820Z,2.57
2018-03-04T09:27:13.807Z,2.63
2018-03-04T09:40:48.289Z,2.85
2018-03-04T09:41:48.276Z,2.92
2018-03-04T09:42:48.262Z,2.89
2018-03-04T09:43:48.254Z,3.05
2018-03-04T09:44:48.247Z,3.06
2018-03-04T09:45:48.240Z,3.02
2018-03-04T10:16:12.902Z,4.04
2018-03-04T10:17:12.892Z,4.22
2018-03-04T10:18:12.880Z,4.26
2018-03-04T10:19:12.871Z,4.40
2018-03-04T10:20:12.865Z,4.55
2018-03-04T10:21:12.859Z,4.70
2018-03-04T10:22:12.846Z,4.86
2018-03-04T10:23:12.840Z,4.89
2018-03-04T10:24:12.835Z,4.96
2018-03-04T10:25:12.819Z,5.00
2018-03-04T10:26:12.832Z,4.70
2018-03-04T10:27:12.809Z,4.42
2018-03-04T10:28:12.800Z,4.44
2018-03-04T10:29:12.790Z,4.29
2018-03-04T10:30:12.781Z,4.37
2018-03-04T10:31:12.773Z,4.23
2018-03-04T10:32:12.767Z,4.40
2018-03-04T10:33:12.760Z,4.32
2018-03-04T10:34:12.848Z,4.41
2018-03-04T10:35:12.739Z,4.45
2018-03-04T10:36:12.730Z,4.58
2018-03-04T10:37:12.726Z,4.60
2018-03-04T10:38:12.713Z,4.69
2018-03-04T10:39:12.711Z,4.75
2018-03-04T10:40:12.699Z,4.73
2018-03-04T10:41:12.692Z,5.12
2018-03-04T10:42:12.716Z,5.28
2018-03-04T10:43:12.678Z,5.51
2018-03-04T10:44:12.680Z,5.64
2018-03-04T10:45:12.659Z,5.85
2018-03-04T10:46:12.652Z,6.22
2018-03-04T10:47:12.641Z,6.59
2018-03-04T10:48:12.633Z,6.62
2018-03-04T10:49:12.631Z,6.59
2018-03-04T10:50:12.629Z,5.96
2018-03-04T10:51:12.622Z,6.27
2018-03-04T10:52:12.707Z,6.30
2018-03-04T10:53:12.598Z,6.44
2018-03-04T10:54:12.590Z,6.41
2018-03-04T10:55:12.587Z,6.14
2018-03-04T10:56:12.579Z,6.33
2018-03-04T10:57:12.571Z,6.73
2018-03-04T10:58:12.560Z,7.06
2018-03-04T10:59:12.559Z,7.10
2018-03-04T11:00:12.554Z,7.42
2018-03-04T11:01:12.546Z,7.61
2018-03-04T11:02:12.536Z,7.74
2018-03-04T11:12:46.322Z,7.58
2018-03-04T11:13:46.331Z,7.71
2018-03-04T11:17:12.043Z,7.06
2018-03-04T11:18:11.975Z,7.25
2018-03-04T11:19:11.967Z,7.82
2018-03-04T11:20:11.960Z,7.85
2018-03-04T11:21:11.956Z,7.82
2018-03-04T11:22:11.953Z,7.93
2018-03-04T11:23:11.940Z,8.18
2018-03-04T11:24:11.937Z,8.20
2018-03-04T11:25:11.975Z,8.47
2018-03-04T11:26:11.921Z,8.70
2018-03-04T11:27:11.919Z,8.71
2018-03-04T11:28:11.914Z,8.84
2018-03-04T11:29:11.909Z,8.76
2018-03-04T11:31:34.387Z,9.01
2018-03-04T11:32:36.999Z,8.91
2018-03-04T11:36:00.056Z,9.01
2018-03-04T11:37:00.048Z,9.15
2018-03-04T11:38:00.037Z,9.17
2018-03-04T11:40:58.546Z,8.89
2018-03-04T11:41:55.307Z,8.74
2018-03-04T11:42:54.894Z,8.63
2018-03-04T11:43:57.512Z,8.36
2018-03-04T11:44:54.888Z,8.15
2018-03-04T11:46:42.303Z,7.93
2018-03-04T11:47:42.295Z,7.98
2018-03-04T11:51:08.075Z,8.58
2018-03-04T11:55:41.314Z,9.28
2018-03-04T11:58:18.617Z,9.28
2018-03-04T11:59:18.608Z,9.17
2018-03-04T12:03:48.506Z,9.78
2018-03-04T12:05:46.155Z,9.84
2018-03-04T12:09:42.472Z,10.71
2018-03-04T12:14:10.927Z,11.90
2018-03-04T12:16:43.366Z,11.85
2018-03-04T12:17:40.739Z,11.95
2018-03-04T12:19:33.172Z,11.79
2018-03-04T12:20:33.167Z,11.88
2018-03-04T12:21:36.594Z,12.09
2018-03-04T12:22:33.162Z,11.86
2018-03-04T12:24:16.995Z,12.32
2018-03-04T12:25:18.414Z,12.64
2018-03-04T12:26:15.573Z,12.71
2018-03-04T12:27:15.574Z,12.10
2018-03-04T12:29:15.980Z,11.36
2018-03-04T12:30:15.577Z,10.92
2018-03-04T12:31:15.573Z,11.39
2018-03-04T12:32:15.575Z,12.19
2018-03-04T12:33:15.582Z,12.85
2018-03-04T12:34:15.583Z,13.12
2018-03-04T12:35:15.580Z,13.59
2018-03-04T12:36:15.581Z,13.95
2018-03-04T12:37:15.581Z,14.00
2018-03-04T12:38:15.581Z,14.04
2018-03-04T12:39:15.584Z,13.81
2018-03-04T12:40:15.889Z,13.84
2018-03-04T12:41:15.590Z,13.62
2018-03-04T12:42:15.596Z,13.29
2018-03-04T12:43:15.595Z,13.30
2018-03-04T12:44:15.598Z,13.55
2018-03-04T12:45:15.603Z,13.64
2018-03-04T12:46:15.609Z,13.97
2018-03-04T12:47:15.612Z,13.87
2018-03-04T12:48:15.619Z,13.85
2018-03-04T12:49:15.620Z,14.12
2018-03-04T12:50:15.627Z,13.97
2018-03-04T12:51:15.626Z,13.97
2018-03-04T12:52:15.630Z,14.14
2018-03-04T12:53:15.648Z,14.29
2018-03-04T12:54:15.642Z,14.50
2018-03-04T12:55:15.653Z,14.65
2018-03-04T12:56:15.660Z,14.46
2018-03-04T12:57:15.655Z,14.40
2018-03-04T12:58:15.665Z,14.95
2018-03-04T12:59:15.667Z,14.46
2018-03-04T13:00:15.671Z,14.50
2018-03-04T13:01:15.679Z,14.78
2018-03-04T13:02:15.683Z,14.47
2018-03-04T13:03:15.688Z,14.65
2018-03-04T13:04:15.698Z,14.24
2018-03-04T13:05:15.703Z,14.24
2018-03-04T13:06:15.705Z,14.27
2018-03-04T13:07:15.710Z,14.72
2018-03-04T13:08:15.718Z,14.73
2018-03-04T13:09:15.727Z,14.91
2018-03-04T13:10:15.731Z,15.03
2018-03-04T13:11:15.736Z,15.13
2018-03-04T13:12:15.742Z,15.14
2018-03-04T13:13:15.747Z,15.28
2018-03-04T13:14:15.754Z,14.89
2018-03-04T13:15:15.779Z,15.01
2018-03-04T13:16:15.785Z,14.72
2018-03-04T13:17:15.779Z,14.61
2018-03-04T13:18:15.791Z,13.99
2018-03-04T13:19:15.784Z,13.52
2018-03-04T13:20:15.790Z,13.67
2018-03-04T13:21:15.797Z,13.08
2018-03-04T13:22:15.803Z,12.70
2018-03-04T13:23:15.808Z,12.60
2018-03-04T13:24:15.811Z,12.42
2018-03-04T13:25:15.817Z,12.39
2018-03-04T13:26:15.828Z,13.23
2018-03-04T13:27:15.828Z,12.95
2018-03-04T13:28:15.855Z,12.86
2018-03-04T13:29:15.856Z,12.52
2018-03-04T13:30:15.856Z,12.28
2018-03-04T13:31:15.864Z,12.29
2018-03-04T13:32:15.856Z,12.27
2018-03-04T13:33:15.860Z,12.54
2018-03-04T13:34:15.865Z,12.83
2018-03-04T13:35:15.869Z,12.72
2018-03-04T13:36:15.905Z,12.85
2018-03-04T13:37:15.880Z,13.44
2018-03-04T13:38:15.885Z,13.67
2018-03-04T13:39:15.893Z,14.25
2018-03-04T13:40:15.899Z,14.77
2018-03-04T13:41:15.902Z,15.16
2018-03-04T13:42:15.909Z,15.07
2018-03-04T13:43:15.911Z,14.25
2018-03-04T13:44:15.914Z,13.69
2018-03-04T13:45:15.917Z,13.32
2018-03-04T13:46:15.922Z,13.11
2018-03-04T13:47:15.922Z,13.07
2018-03-04T13:48:15.929Z,12.72
2018-03-04T13:49:15.933Z,12.78
2018-03-04T13:50:15.937Z,12.85
2018-03-04T13:51:15.953Z,12.52
2018-03-04T13:52:15.950Z,12.65
2018-03-04T13:53:15.959Z,12.93
2018-03-04T13:54:15.969Z,13.25
2018-03-04T13:55:15.960Z,13.62
2018-03-04T13:56:15.962Z,13.66
2018-03-04T13:57:15.970Z,13.29
2018-03-04T13:58:15.970Z,13.14
2018-03-04T13:59:15.978Z,13.48
2018-03-04T14:00:15.978Z,13.48
2018-03-04T14:01:16.030Z,13.04
2018-03-04T14:02:15.990Z,13.07
2018-03-04T14:03:16.000Z,13.22
2018-03-04T14:04:16.003Z,13.64
2018-03-04T14:05:15.996Z,13.91
2018-03-04T14:06:16.023Z,14.18
2018-03-04T14:07:16.006Z,13.29
2018-03-04T14:08:16.021Z,12.82
2018-03-04T14:09:16.013Z,12.89
2018-03-04T14:10:16.042Z,12.64
2018-03-04T14:11:16.024Z,12.57
2018-03-04T14:12:16.023Z,13.15
2018-03-04T14:13:16.036Z,13.42
2018-03-04T14:14:16.030Z,13.71
2018-03-04T14:15:16.039Z,13.20
2018-03-04T14:16:16.038Z,13.10
2018-03-04T14:17:16.050Z,13.07
2018-03-04T14:18:16.051Z,13.07
2018-03-04T14:19:16.046Z,13.57
2018-03-04T14:20:16.052Z,14.04
2018-03-04T14:21:16.058Z,14.40
2018-03-04T14:22:16.062Z,14.57
2018-03-04T14:23:16.064Z,14.46
2018-03-04T14:24:16.072Z,14.45
2018-03-04T14:25:16.077Z,14.89
2018-03-04T14:26:16.095Z,14.77
2018-03-04T14:27:16.084Z,14.65
2018-03-04T14:28:16.082Z,13.57
2018-03-04T14:29:16.106Z,13.12
2018-03-04T14:30:16.089Z,12.37
2018-03-04T14:31:16.102Z,12.16
2018-03-04T14:32:16.110Z,12.32
2018-03-04T14:33:16.099Z,12.37
2018-03-04T14:34:16.102Z,12.20
2018-03-04T14:35:16.119Z,12.14
2018-03-04T14:36:16.151Z,12.13
2018-03-04T14:37:16.108Z,12.09
2018-03-04T14:38:16.118Z,12.34
2018-03-04T14:39:16.116Z,12.72
2018-03-04T14:40:16.119Z,12.86
2018-03-04T14:41:16.120Z,13.11
2018-03-04T14:42:16.123Z,12.82
2018-03-04T14:43:16.125Z,12.74
2018-03-04T14:44:16.126Z,13.00
2018-03-04T14:45:16.138Z,13.19
2018-03-04T14:46:16.132Z,12.97
2018-03-04T14:47:16.132Z,12.90
2018-03-04T14:48:16.136Z,13.03
2018-03-04T14:49:16.141Z,13.05
2018-03-04T14:50:16.136Z,13.22
2018-03-04T14:51:16.151Z,13.08
2018-03-04T14:52:16.398Z,12.47
2018-03-04T14:53:16.149Z,12.39
2018-03-04T14:54:16.152Z,12.32
2018-03-04T14:55:16.150Z,12.21
2018-03-04T14:56:16.150Z,12.16
2018-03-04T14:57:16.149Z,11.98
2018-03-04T14:58:16.156Z,11.91
2018-03-04T14:59:16.203Z,11.91
2018-03-04T15:00:16.159Z,11.86
2018-03-04T15:01:16.154Z,11.79
2018-03-04T15:02:16.155Z,11.91
2018-03-04T15:03:16.156Z,11.85
2018-03-04T15:04:16.172Z,11.67
2018-03-04T15:05:16.157Z,11.58
2018-03-04T15:06:16.155Z,11.60
2018-03-04T15:07:16.157Z,11.67
2018-03-04T15:08:16.160Z,11.94
2018-03-04T15:09:16.157Z,11.85
2018-03-04T15:10:16.172Z,11.64
2018-03-04T15:11:16.152Z,11.62
2018-03-04T15:12:16.161Z,11.46
2018-03-04T15:13:16.173Z,11.40
2018-03-04T15:14:16.154Z,11.36
2018-03-04T15:15:16.152Z,11.36
2018-03-04T15:16:16.160Z,11.40
2018-03-04T15:17:16.148Z,11.40
2018-03-04T15:18:16.150Z,11.32
2018-03-04T15:19:16.143Z,11.44
2018-03-04T15:20:16.149Z,11.32
2018-03-04T15:21:16.146Z,11.21
2018-03-04T15:22:16.145Z,11.25
2018-03-04T15:23:16.136Z,11.17
2018-03-04T15:24:16.138Z,11.28
2018-03-04T15:25:16.138Z,11.18
2018-03-04T15:26:16.132Z,11.22
2018-03-04T15:27:16.128Z,11.07
2018-03-04T15:28:16.138Z,11.09
2018-03-04T15:29:16.127Z,11.03
2018-03-04T15:30:16.119Z,11.06
2018-03-04T15:31:16.120Z,11.09
2018-03-04T15:32:16.117Z,11.02
2018-03-04T15:33:16.118Z,10.96
2018-03-04T15:34:16.112Z,10.99
2018-03-04T15:35:16.112Z,11.00
2018-03-04T15:36:16.113Z,10.97
2018-03-04T15:37:16.118Z,10.92
2018-03-04T15:38:16.101Z,10.92
2018-03-04T15:39:16.096Z,10.99
2018-03-04T15:40:16.092Z,11.00
2018-03-04T15:41:16.088Z,10.96
2018-03-04T15:42:16.084Z,10.97
2018-03-04T15:43:16.131Z,10.91
2018-03-04T15:44:16.082Z,10.92
2018-03-04T15:45:16.073Z,10.78
2018-03-04T15:46:16.077Z,10.78
2018-03-04T15:47:16.065Z,10.82
2018-03-04T15:48:16.065Z,10.79
2018-03-04T15:49:16.070Z,10.78
2018-03-04T15:50:16.059Z,10.71
2018-03-04T15:51:16.054Z,10.61
2018-03-04T15:52:16.050Z,10.66
2018-03-04T15:53:16.053Z,10.60
2018-03-04T15:54:16.040Z,10.63
2018-03-04T15:55:16.042Z,10.63
2018-03-04T15:56:16.034Z,10.55
2018-03-04T15:57:16.028Z,10.53
2018-03-04T15:58:16.027Z,10.52
2018-03-04T15:59:16.021Z,10.45
2018-03-04T16:00:16.020Z,10.33
2018-03-04T16:01:16.024Z,10.36
2018-03-04T16:02:16.018Z,10.32
2018-03-04T16:03:16.027Z,10.27
2018-03-04T16:04:16.007Z,10.20
2018-03-04T16:05:15.996Z,10.26
2018-03-04T16:06:15.997Z,10.30
2018-03-04T16:07:15.987Z,10.20
2018-03-04T16:08:15.983Z,10.22
2018-03-04T16:09:15.978Z,10.20
2018-03-04T16:10:15.977Z,10.17
2018-03-04T16:11:15.970Z,10.07
2018-03-04T16:12:15.967Z,10.05
2018-03-04T16:13:15.973Z,10.09
2018-03-04T16:14:15.970Z,10.05
2018-03-04T16:15:15.971Z,10.07
2018-03-04T16:16:15.948Z,10.01
2018-03-04T16:17:15.942Z,9.96
2018-03-04T16:18:15.937Z,9.99
2018-03-04T16:19:15.934Z,10.02
2018-03-04T16:20:15.929Z,9.93
2018-03-04T16:21:15.929Z,9.91
2018-03-04T16:22:17.840Z,9.86
2018-03-04T16:23:15.917Z,9.90
2018-03-04T16:24:15.912Z,9.89
2018-03-04T16:25:15.906Z,9.87
2018-03-04T16:26:15.902Z,9.90
2018-03-04T16:27:15.897Z,9.76
2018-03-04T16:28:15.894Z,9.78
2018-03-04T16:29:15.885Z,9.81
2018-03-04T16:30:15.880Z,9.75
2018-03-04T16:31:15.877Z,9.75
2018-03-04T16:32:15.873Z,9.75
2018-03-04T16:33:15.869Z,9.64
2018-03-04T16:34:15.864Z,9.61
2018-03-04T16:35:15.859Z,9.53
2018-03-04T16:36:15.851Z,9.53
2018-03-04T16:37:15.846Z,9.54
2018-03-04T16:38:15.847Z,9.56
2018-03-04T16:39:15.861Z,9.50
2018-03-04T16:40:15.835Z,9.50
2018-03-04T16:41:15.827Z,9.50
2018-03-04T16:42:15.819Z,9.47
2018-03-04T16:43:15.819Z,9.29
2018-03-04T16:44:15.815Z,9.42
2018-03-04T16:45:15.807Z,9.36
2018-03-04T16:46:15.804Z,9.39
2018-03-04T16:47:15.799Z,9.29
2018-03-04T16:48:15.790Z,9.31
2018-03-04T16:49:15.787Z,9.31
2018-03-04T16:50:15.777Z,9.29
2018-03-04T16:51:15.772Z,9.28
2018-03-04T16:52:15.777Z,9.23
2018-03-04T16:53:15.765Z,9.13
2018-03-04T16:54:15.760Z,9.15
2018-03-04T16:55:15.753Z,9.02
2018-03-04T16:56:15.749Z,9.08
2018-03-04T16:57:15.744Z,8.98
2018-03-04T16:58:15.988Z,8.94
2018-03-04T16:59:15.733Z,9.01
2018-03-04T17:00:15.759Z,8.94
2018-03-04T17:01:15.721Z,8.92
2018-03-04T17:02:15.718Z,8.84
2018-03-04T17:03:15.710Z,8.84
2018-03-04T17:04:15.704Z,8.81
2018-03-04T17:05:15.703Z,8.81
2018-03-04T17:06:15.692Z,8.79
2018-03-04T17:07:15.686Z,8.79
2018-03-04T17:08:15.685Z,8.74
2018-03-04T17:09:15.673Z,8.65
2018-03-04T17:10:15.667Z,8.63
2018-03-04T17:11:15.664Z,8.70
2018-03-04T17:12:15.659Z,8.59
2018-03-04T17:13:15.651Z,8.68
2018-03-04T17:14:15.643Z,8.65
2018-03-04T17:15:15.642Z,8.53
2018-03-04T17:16:15.633Z,8.58
2018-03-04T17:17:15.629Z,8.59
2018-03-04T17:18:15.621Z,8.53
2018-03-04T17:19:15.614Z,8.48
2018-03-04T17:20:15.608Z,8.47
2018-03-04T17:21:15.603Z,8.47
2018-03-04T17:22:15.595Z,8.44
2018-03-04T17:23:15.590Z,8.43
2018-03-04T17:24:15.586Z,8.43
2018-03-04T17:25:15.583Z,8.40
2018-03-04T17:26:15.572Z,8.38
2018-03-04T17:27:15.568Z,8.34
2018-03-04T17:28:15.565Z,8.34
2018-03-04T17:29:15.556Z,8.33
2018-03-04T17:30:15.565Z,8.28
2018-03-04T17:31:15.543Z,8.25
2018-03-04T17:32:15.544Z,8.15
2018-03-04T17:33:15.534Z,8.18
2018-03-04T17:34:15.626Z,8.12
2018-03-04T17:35:15.519Z,8.12
2018-03-04T17:36:15.512Z,8.11
2018-03-04T17:37:15.525Z,8.18
2018-03-04T17:38:15.499Z,8.05
2018-03-04T17:39:15.500Z,8.02
2018-03-04T17:40:15.488Z,8.05
2018-03-04T17:41:15.489Z,8.02
2018-03-04T17:42:15.474Z,8.01
2018-03-04T17:43:15.473Z,8.10
2018-03-04T17:44:15.465Z,8.12
2018-03-04T17:45:15.472Z,8.05
2018-03-04T17:46:15.452Z,8.10
2018-03-04T17:47:15.448Z,7.98
2018-03-04T17:48:15.441Z,8.04
2018-03-04T17:49:15.431Z,7.97
2018-03-04T17:50:15.428Z,7.89
2018-03-04T17:51:15.424Z,7.74
2018-03-04T17:52:15.419Z,7.74
2018-03-04T17:53:15.411Z,7.82
2018-03-04T17:54:15.409Z,7.74
2018-03-04T17:55:15.395Z,7.72
2018-03-04T17:56:15.389Z,7.72
2018-03-04T17:57:15.381Z,7.75
2018-03-04T17:58:15.379Z,7.69
2018-03-04T17:59:15.375Z,7.69
2018-03-04T18:00:15.367Z,7.69
2018-03-04T18:01:15.358Z,7.72
2018-03-04T18:02:15.353Z,7.63
2018-03-04T18:03:15.350Z,7.71
2018-03-04T18:04:15.590Z,7.67
2018-03-04T18:05:15.334Z,7.67
2018-03-04T18:06:15.331Z,7.68
2018-03-04T18:07:15.322Z,7.68
2018-03-04T18:08:15.313Z,7.69
2018-03-04T18:09:15.308Z,7.60
2018-03-04T18:10:15.607Z,7.60
2018-03-04T18:11:15.296Z,7.61
2018-03-04T18:12:15.290Z,7.58
2018-03-04T18:13:15.287Z,7.60
2018-03-04T18:14:15.277Z,7.58
2018-03-04T18:15:15.272Z,7.50
2018-03-04T18:16:15.518Z,7.46
2018-03-04T18:17:15.264Z,7.49
2018-03-04T18:18:15.256Z,7.37
2018-03-04T18:19:15.253Z,7.39
2018-03-04T18:20:15.239Z,7.37
2018-03-04T18:21:15.237Z,7.40
2018-03-04T18:28:22.585Z,7.27
2018-03-04T18:29:22.473Z,7.35
2018-03-04T18:30:22.462Z,7.25
2018-03-04T18:31:22.461Z,7.25
2018-03-04T18:32:22.455Z,7.13
2018-03-04T18:33:22.450Z,7.12
2018-03-04T18:34:22.442Z,7.21
2018-03-04T18:35:22.444Z,7.23
2018-03-04T18:36:22.431Z,7.20
2018-03-04T18:37:22.418Z,7.12
2018-03-04T18:38:22.420Z,7.12
2018-03-04T18:39:22.412Z,7.10
2018-03-04T18:40:22.404Z,7.13
2018-03-04T18:41:22.399Z,7.10
2018-03-04T18:42:22.388Z,6.97
2018-03-04T18:43:22.382Z,6.99
2018-03-04T18:44:22.377Z,7.09
2018-03-04T18:45:22.372Z,7.09
2018-03-04T18:46:22.464Z,7.09
2018-03-04T18:47:22.356Z,7.06
2018-03-04T18:48:22.348Z,7.06
2018-03-04T18:49:22.344Z,7.13
2018-03-04T18:50:22.335Z,7.12
2018-03-04T18:51:22.333Z,7.10
2018-03-04T18:52:22.326Z,7.12
2018-03-04T18:53:22.319Z,7.13
2018-03-04T18:54:22.310Z,7.13
2018-03-04T18:55:22.302Z,7.05
2018-03-04T18:56:22.302Z,7.02
2018-03-04T18:57:22.293Z,7.07
2018-03-04T18:58:22.288Z,6.98
2018-03-04T18:59:22.277Z,7.13
2018-03-04T19:00:22.271Z,7.03
2018-03-04T19:01:22.268Z,7.03
2018-03-04T19:02:22.261Z,7.05
2018-03-04T19:03:22.253Z,7.06
2018-03-04T19:04:22.247Z,6.99
2018-03-04T19:05:22.239Z,6.97
2018-03-04T19:06:22.233Z,7.02
2018-03-04T19:07:22.230Z,6.98
2018-03-04T19:08:22.222Z,6.94
2018-03-04T19:09:22.217Z,6.97
2018-03-04T19:10:22.218Z,6.98
2018-03-04T19:11:22.205Z,6.95
2018-03-04T19:12:22.198Z,6.95
2018-03-04T19:13:22.189Z,6.98
2018-03-04T19:14:22.181Z,6.91
2018-03-04T19:15:22.175Z,6.95
2018-03-04T19:16:22.167Z,6.92
2018-03-04T19:17:22.165Z,6.99
2018-03-04T19:18:22.166Z,6.92
2018-03-04T19:19:22.171Z,6.97
2018-03-04T19:20:22.139Z,6.97
2018-03-04T19:21:22.136Z,7.02
2018-03-04T19:22:22.128Z,6.95
2018-03-04T19:23:22.122Z,6.92
2018-03-04T19:24:22.115Z,7.02
2018-03-04T19:25:22.108Z,7.02
2018-03-04T19:26:22.100Z,6.97
2018-03-04T19:27:22.091Z,6.97
2018-03-04T19:28:22.087Z,6.95
2018-03-04T19:29:22.084Z,6.94
2018-03-04T19:30:22.071Z,6.95
2018-03-04T19:31:22.071Z,6.98
2018-03-04T19:32:22.063Z,6.94
2018-03-04T19:33:22.055Z,6.97
2018-03-04T19:34:22.052Z,6.97
2018-03-04T19:35:22.040Z,6.98
2018-03-04T19:36:22.033Z,6.92
2018-03-04T19:37:22.026Z,6.89
2018-03-04T19:38:22.021Z,6.97
2018-03-04T19:39:22.015Z,7.02
2018-03-04T19:40:22.111Z,7.02
2018-03-04T19:41:22.004Z,7.02
2018-03-04T19:42:21.999Z,6.99
2018-03-04T19:43:21.987Z,6.92
2018-03-04T19:44:21.985Z,6.94
2018-03-04T19:45:21.982Z,6.97
2018-03-04T19:46:21.970Z,6.92
2018-03-04T19:47:22.031Z,6.87
2018-03-04T19:48:21.961Z,6.94
2018-03-04T19:49:21.953Z,6.91
2018-03-04T19:50:21.941Z,6.88
2018-03-04T19:51:21.939Z,6.81
2018-03-04T19:52:21.932Z,6.89
2018-03-04T19:53:21.928Z,6.94
2018-03-04T19:54:21.968Z,6.79
2018-03-04T19:55:21.914Z,6.76
2018-03-04T19:56:21.906Z,6.64
2018-03-04T19:57:21.901Z,6.58
2018-03-04T19:58:21.943Z,6.51
2018-03-04T19:59:21.884Z,6.51
2018-03-04T20:00:21.885Z,6.55
2018-03-04T20:01:21.871Z,6.44
2018-03-04T20:02:21.868Z,6.37
2018-03-04T20:03:21.856Z,6.36
2018-03-04T20:04:21.850Z,6.36
2018-03-04T20:05:21.847Z,6.33
2018-03-04T20:06:21.835Z,6.37
2018-03-04T20:07:21.830Z,6.30
2018-03-04T20:08:21.824Z,6.25
2018-03-04T20:09:21.815Z,6.27
2018-03-04T20:10:21.822Z,6.27
2018-03-04T20:11:21.801Z,6.25
2018-03-04T20:12:21.794Z,6.28
2018-03-04T20:13:21.788Z,6.25
2018-03-04T20:14:21.780Z,6.27
2018-03-04T20:15:21.770Z,6.21
2018-03-04T20:16:21.778Z,6.22
2018-03-04T20:17:21.753Z,6.19
2018-03-04T20:18:21.748Z,6.28
2018-03-04T20:19:21.741Z,6.25
2018-03-04T20:20:21.751Z,6.27
2018-03-04T20:21:21.728Z,6.27
2018-03-04T20:22:21.718Z,6.38
2018-03-04T20:23:21.712Z,6.27
2018-03-04T20:24:21.707Z,6.37
2018-03-04T20:25:21.697Z,6.46
2018-03-04T20:26:21.707Z,6.46
2018-03-04T20:27:21.684Z,6.51
2018-03-04T20:28:21.674Z,6.48
2018-03-04T20:29:21.670Z,6.46
2018-03-04T20:30:21.665Z,6.43
2018-03-04T20:31:21.654Z,6.46
2018-03-04T20:32:21.647Z,6.31
2018-03-04T20:33:21.638Z,6.36
2018-03-04T20:34:21.632Z,6.28
2018-03-04T20:35:21.626Z,6.19
2018-03-04T20:36:21.618Z,6.09
2018-03-04T20:37:21.610Z,6.04
2018-03-04T20:38:21.606Z,6.08
2018-03-04T20:39:21.594Z,6.12
2018-03-04T20:40:21.587Z,6.08
2018-03-04T20:41:21.579Z,6.14
2018-03-04T20:42:21.574Z,6.11
2018-03-04T20:43:21.568Z,6.14
2018-03-04T20:44:21.559Z,6.11
2018-03-04T20:45:21.552Z,6.12
2018-03-04T20:46:21.549Z,6.06
2018-03-04T20:47:21.536Z,6.03
2018-03-04T20:48:21.535Z,6.04
2018-03-04T20:49:21.529Z,6.03
2018-03-04T20:50:21.523Z,5.97
2018-03-04T20:51:21.511Z,6.11
2018-03-04T20:52:21.506Z,5.94
2018-03-04T20:53:21.491Z,6.08
2018-03-04T20:54:21.491Z,6.06
2018-03-04T20:55:21.481Z,6.06
2018-03-04T20:56:21.475Z,6.11
2018-03-04T20:57:21.465Z,6.08
2018-03-04T20:58:21.459Z,6.04
2018-03-04T20:59:21.454Z,6.03
2018-03-04T21:00:21.445Z,6.06
2018-03-04T21:01:21.445Z,6.01
2018-03-04T21:02:21.433Z,6.09
2018-03-04T21:03:21.428Z,6.00
2018-03-04T21:04:21.415Z,5.90
2018-03-04T21:05:21.409Z,5.91
2018-03-04T21:06:21.402Z,5.94
2018-03-04T21:07:21.403Z,5.79
2018-03-04T21:08:21.386Z,5.86
2018-03-04T21:09:21.379Z,5.85
2018-03-04T21:10:21.373Z,5.90
2018-03-04T21:11:21.372Z,5.85
2018-03-04T21:12:21.356Z,5.91
2018-03-04T21:13:21.347Z,5.91
2018-03-04T21:14:21.349Z,5.85
2018-03-04T21:15:21.336Z,5.83
2018-03-04T21:16:21.327Z,5.86
2018-03-04T21:17:21.321Z,5.93
2018-03-04T21:18:21.315Z,5.90
2018-03-04T21:19:21.307Z,5.86
2018-03-04T21:20:21.293Z,5.96
2018-03-04T21:21:21.294Z,5.97
2018-03-04T21:22:21.277Z,6.00
2018-03-04T21:23:21.273Z,5.97
2018-03-04T21:24:21.266Z,6.03
2018-03-04T21:25:21.260Z,6.11
2018-03-04T21:26:21.245Z,6.06
2018-03-04T21:27:21.245Z,5.97
2018-03-04T21:28:21.337Z,5.93
2018-03-04T21:29:21.254Z,6.03
2018-03-04T21:30:21.216Z,6.06
2018-03-04T21:31:21.217Z,6.00
2018-03-04T21:32:21.199Z,6.00
2018-03-04T21:33:21.192Z,5.96
2018-03-04T21:34:21.186Z,6.06
2018-03-04T21:35:21.179Z,6.06
2018-03-04T21:36:21.241Z,6.06
2018-03-04T21:37:21.165Z,6.08
2018-03-04T21:38:21.155Z,6.12
2018-03-04T21:39:21.143Z,6.08
2018-03-04T21:40:21.134Z,6.09
2018-03-04T21:41:21.131Z,6.14
2018-03-04T21:42:21.121Z,6.15
2018-03-04T21:43:21.113Z,6.19
2018-03-04T21:44:21.104Z,6.15
2018-03-04T21:45:21.097Z,6.04
2018-03-04T21:46:21.087Z,6.15
2018-03-04T21:47:21.083Z,6.14
2018-03-04T21:48:21.070Z,6.21
2018-03-04T21:49:21.068Z,6.09
2018-03-04T21:50:21.055Z,6.21
2018-03-04T21:51:21.049Z,6.25
2018-03-04T21:52:21.041Z,6.17
2018-03-04T21:53:21.034Z,6.22
2018-03-04T21:54:21.024Z,6.22
2018-03-04T21:55:21.017Z,6.27
2018-03-04T21:56:21.013Z,6.28
2018-03-04T21:57:21.005Z,6.27
2018-03-04T21:58:20.995Z,6.25
2018-03-04T21:59:20.984Z,6.19
2018-03-04T22:00:20.982Z,6.31
2018-03-04T22:01:20.967Z,6.30
2018-03-04T22:02:20.961Z,6.28
2018-03-04T22:03:20.955Z,6.37
2018-03-04T22:04:20.952Z,6.25
2018-03-04T22:05:20.941Z,6.34
2018-03-04T22:06:20.935Z,6.22
2018-03-04T22:07:20.927Z,6.28
2018-03-04T22:08:20.914Z,6.34
2018-03-04T22:09:20.913Z,6.33
2018-03-04T22:10:20.899Z,6.36
2018-03-04T22:11:20.893Z,6.30
2018-03-04T22:12:20.882Z,6.36
2018-03-04T22:13:20.878Z,6.36
2018-03-04T22:14:20.868Z,6.43
2018-03-04T22:15:20.864Z,6.46
2018-03-04T22:16:20.855Z,6.49
2018-03-04T22:17:20.849Z,6.54
2018-03-04T22:18:20.844Z,6.43
2018-03-04T22:19:20.829Z,6.49
2018-03-04T22:20:20.820Z,6.49
2018-03-04T22:21:20.813Z,6.46
2018-03-04T22:22:20.806Z,6.48
2018-03-04T22:23:20.800Z,6.49
2018-03-04T22:24:20.795Z,6.40
2018-03-04T22:25:20.789Z,6.52
2018-03-04T22:26:20.778Z,6.58
2018-03-04T22:27:20.772Z,6.46
2018-03-04T22:28:20.772Z,6.59
2018-03-04T22:29:20.753Z,6.46
2018-03-04T22:30:20.748Z,6.46
2018-03-04T22:31:20.740Z,6.61
2018-03-04T22:32:20.728Z,6.59
2018-03-04T22:33:20.725Z,6.54
2018-03-04T22:34:20.714Z,6.58
2018-03-04T22:35:20.707Z,6.55
2018-03-04T22:36:20.700Z,6.51
2018-03-04T22:37:20.695Z,6.43
2018-03-04T22:38:20.684Z,6.56
2018-03-04T22:39:20.675Z,6.56
2018-03-04T22:40:20.667Z,6.46
2018-03-04T22:41:20.662Z,6.59
2018-03-04T22:42:20.656Z,6.54
2018-03-04T22:43:20.643Z,6.49
2018-03-04T22:44:20.637Z,6.55
2018-03-04T22:45:20.639Z,6.51
2018-03-04T22:46:20.625Z,6.61
2018-03-04T22:47:20.616Z,6.64
2018-03-04T22:48:20.608Z,6.62
2018-03-04T22:49:20.599Z,6.73
2018-03-04T22:50:20.598Z,6.69
2018-03-04T22:51:20.584Z,6.73
2018-03-04T22:52:20.584Z,6.70
2018-03-04T22:53:20.566Z,6.69
2018-03-04T22:54:20.558Z,6.81
2018-03-04T22:55:20.555Z,6.77
2018-03-04T22:56:20.547Z,6.80
2018-03-04T22:57:20.544Z,6.73
2018-03-04T22:58:20.530Z,6.80
2018-03-04T22:59:20.524Z,6.85
2018-03-04T23:00:20.516Z,6.80
2018-03-04T23:01:20.509Z,6.84
2018-03-04T23:02:20.499Z,6.79
2018-03-04T23:03:20.491Z,6.85
2018-03-04T23:04:20.483Z,6.87
2018-03-04T23:05:20.481Z,6.88
2018-03-04T23:06:20.474Z,6.91
2018-03-04T23:07:20.477Z,6.95
2018-03-04T23:08:20.461Z,6.98
2018-03-04T23:09:20.446Z,6.99
2018-03-04T23:10:20.441Z,7.05
2018-03-04T23:11:20.437Z,6.97
2018-03-04T23:12:20.439Z,7.12
2018-03-04T23:13:20.438Z,7.16
2018-03-04T23:14:20.422Z,7.12
2018-03-04T23:15:20.405Z,7.20
2018-03-04T23:16:20.396Z,7.15
2018-03-04T23:17:20.387Z,7.23
2018-03-04T23:18:20.385Z,7.21
2018-03-04T23:19:20.374Z,7.24
2018-03-04T23:20:20.372Z,7.31
2018-03-04T23:21:20.360Z,7.31
2018-03-04T23:22:20.351Z,7.28
2018-03-04T23:23:20.343Z,7.37
2018-03-04T23:24:20.337Z,7.37
2018-03-04T23:25:20.328Z,7.39
2018-03-04T23:26:20.320Z,7.39
2018-03-04T23:27:20.315Z,7.39
2018-03-04T23:28:20.312Z,7.50
2018-03-04T23:29:20.301Z,7.45
2018-03-04T23:30:20.299Z,7.55
2018-03-04T23:31:20.288Z,7.60
2018-03-04T23:32:20.287Z,7.67
2018-03-04T23:33:20.277Z,7.58
